Terminal Aerodrome Forecast
Issued by NWS

Home | Current Version | Previous Version | Text Only | Print | Product List | Glossary On
Versions: 1 2 3 4 5 6 7 8 9 10 11 12 13 14 15 16 17 18 19 20 21 22 23 24 25 26 27 28 29 30 31 32 33 34 35 36 37 38 39 40
000
FTUS43 KMKX 240520
TAFENW
TAF
KENW 240520Z 2406/2506 16005KT P6SM SCT200
     FM241400 16007KT P6SM VCSH OVC080
     FM242100 11010KT P6SM -SHRA FEW006 OVC070
     FM250000 12010KT 4SM SHRA BR SCT006 OVC045
     FM250300 14009KT 3SM BR VCSH SCT006 OVC045=

USA.gov is the U.S. government's official web portal to all federal, state and local government web resources and services.